Data for 07/24/2006

Time Sea-Level Adjusted Pressure Absolute Pressure Temperature Relative Humidity Dew Point   
(mb) (inHg) (mb) (inHg) (C) (F) (%) (C) (F)
00:05 1018 30.06 847 25.01 23.5 74.2 40 9.1 48.4
00:10 1018 30.06 848 25.04 24 75.1 40 9.8 49.7
00:15 1018 30.06 848 25.04 23.7 74.7 41 10 50
00:20 1018 30.06 848 25.04 23.7 74.6 41 9.8 49.7
00:25 1018 30.06 847 25.01 23.5 74.3 42 10 50.1
00:30 1018 30.06 847 25.01 23.3 74 42 9.8 49.7
00:35 1018 30.06 847 25.01 23 73.3 45 10.5 50.8
00:40 1018 30.06 847 25.01 22.6 72.6 46 10.4 50.8
00:45 1018 30.06 847 25.01 22.6 72.8 44 9.9 49.9
00:50 1018 30.06 847 25.01 22.5 72.5 45 10.1 50.3
00:55 1018 30.06 847 25.01 22.2 72 46 10.3 50.5
01:00 1018 30.06 847 25.01 21.9 71.4 48 10.4 50.7
01:05 1018 30.06 847 25.01 21.5 70.8 49 10.6 51.1
01:10 1018 30.06 847 25.01 21.3 70.3 50 10.6 51.1
01:15 1018 30.06 847 25.01 21.2 70.2 50 10.4 50.8
01:20 1018 30.06 847 25.01 21.3 70.3 50 10.6 51.1
01:25 1018 30.06 847 25.01 21.1 69.9 50 10.4 50.7
01:30 1018 30.06 847 25.01 21.1 69.9 50 10.4 50.8
01:35 1018 30.06 847 25.01 21.1 70 49 10.2 50.4
01:40 1018 30.06 847 25.01 21.2 70.1 49 10.1 50.2
01:45 1018 30.06 847 25.01 21.2 70.2 48 10 49.9
01:50 1018 30.06 847 25.01 21.4 70.5 49 10.3 50.5
01:55 1018 30.06 847 25.01 21.4 70.4 47 9.9 49.8
02:00 1018 30.06 847 25.01 21.3 70.3 50 10.6 51.1
02:05 1018 30.06 847 25.01 21 69.7 50 10.4 50.7
02:10 1018 30.06 847 25.01 21.1 69.9 50 10.4 50.8
02:15 1018 30.06 847 25.01 20.8 69.5 50 10.2 50.4
02:20 1018 30.06 847 25.01 21 69.8 49 10 50
02:25 1018 30.06 847 25.01 21.2 70.1 48 9.9 49.8
02:30 1018 30.06 847 25.01 21 69.9 50 10.4 50.7
02:35 1018 30.06 847 25.01 21.1 69.9 47 9.6 49.2
02:40 1018 30.06 847 25.01 21.4 70.6 46 9.3 48.8
02:45 1018 30.06 847 25.01 21.5 70.6 47 9.9 49.9
02:50 1018 30.06 847 25.01 21.3 70.3 48 10.1 50.1
02:55 1018 30.06 847 25.01 20.9 69.7 49 9.9 49.8
03:00 1018 30.06 847 25.01 20.8 69.4 50 10.2 50.4
03:05 1018 30.06 847 25.01 20.6 69.1 52 10.4 50.8
03:10 1018 30.06 847 25.01 20.2 68.4 53 10.3 50.6
03:15 1018 30.06 847 25.01 19.9 67.7 56 11 51.9
03:20 1018 30.06 847 25.01 19.2 66.5 58 10.9 51.5
03:25 1018 30.06 847 25.01 19 66.1 59 10.9 51.7
03:30 1018 30.06 847 25.01 19.4 67 55 10.3 50.6
03:35 1018 30.06 847 25.01 20.2 68.3 55 11.1 51.9
03:40 1018 30.06 847 25.01 19.8 67.6 55 10.6 51.1
03:45 1018 30.06 847 25.01 20 67.9 53 10.1 50.2
03:50 1018 30.06 847 25.01 20.6 69.1 48 9.5 49
03:55 1018 30.06 847 25.01 20.6 69 52 10.4 50.8
04:00 1018 30.06 847 25.01 19.8 67.7 54 10.5 50.9
04:05 1018 30.06 847 25.01 19.5 67 55 10.4 50.8
04:10 1018 30.06 847 25.01 19.5 67.1 52 9.5 49.1
04:15 1018 30.06 847 25.01 20.2 68.3 50 9.7 49.4
04:20 1018 30.06 847 25.01 20.7 69.3 48 9.3 48.7
04:25 1018 30.06 847 25.01 21 69.8 50 10.4 50.7
04:30 1018 30.06 847 25.01 20 68.1 54 10.6 51
04:35 1018 30.06 847 25.01 19.2 66.6 57 10.5 50.9
04:40 1018 30.06 847 25.01 19 66.3 58 10.8 51.4
04:45 1018 30.06 847 25.01 18.8 65.8 55 9.6 49.3
04:50 1018 30.06 847 25.01 19.5 67 53 9.8 49.6
04:55 1018 30.06 847 25.01 20 68 52 9.9 49.9
05:00 1018 30.06 847 25.01 19.7 67.5 55 10.7 51.2
05:05 1018 30.06 847 25.01 19.3 66.8 56 10.4 50.7
05:10 1018 30.06 848 25.04 18.9 66 61 11.2 52.2
05:15 1018 30.06 848 25.04 18.9 65.9 58 10.4 50.8
05:20 1019 30.09 848 25.04 19.3 66.7 59 11.2 52.1
05:25 1019 30.09 848 25.04 19.3 66.8 64 12.4 54.3
05:30 1019 30.09 848 25.04 19.1 66.4 67 13 55.4
05:35 1019 30.09 848 25.04 18.6 65.4 71 13.2 55.8
05:40 1019 30.09 848 25.04 18.4 65.1 70 12.9 55.1
05:45 1019 30.09 848 25.04 18.9 66 69 13.1 55.5
05:50 1019 30.09 848 25.04 18.9 66.1 68 13.1 55.5
05:55 1018 30.06 847 25.01 18.6 65.4 71 13.4 56
06:00 1018 30.06 847 25.01 18.6 65.5 71 13.3 55.9
06:05 1018 30.06 847 25.01 19.2 66.5 66 12.8 55
06:10 1018 30.06 847 25.01 19.8 67.7 64 12.9 55.2
06:15 1018 30.06 847 25.01 19.8 67.6 70 14.3 57.8
06:20 1018 30.06 847 25.01 18.7 65.6 71 13.4 56.2
06:25 1018 30.06 847 25.01 18.6 65.4 72 13.5 56.4
06:30 1018 30.06 847 25.01 18.7 65.6 72 13.6 56.5
06:35 1018 30.06 847 25.01 18.9 66.1 70 13.5 56.2
06:40 1018 30.06 847 25.01 19.4 66.9 68 13.3 56
06:45 1018 30.06 847 25.01 19.6 67.3 61 12.1 53.8
06:50 1018 30.06 848 25.04 19.9 67.8 62 12.6 54.6
06:55 1018 30.06 848 25.04 20 68 61 12.2 54
07:00 1018 30.06 848 25.04 20.2 68.3 60 12.2 53.9
07:05 1019 30.09 848 25.04 20.3 68.5 60 12.3 54.1
07:10 1019 30.09 848 25.04 20.3 68.6 62 12.9 55.2
07:15 1019 30.09 848 25.04 20.3 68.6 61 12.6 54.6
07:20 1019 30.09 848 25.04 20.3 68.5 63 13.1 55.6
07:25 1019 30.09 848 25.04 19.9 67.9 65 13.2 55.8
07:30 1019 30.09 848 25.04 19.7 67.5 66 13.3 56
07:35 1019 30.09 848 25.04 19.3 66.8 70 13.7 56.6
07:40 1018 30.06 848 25.04 19.1 66.4 70 13.6 56.5
07:45 1018 30.06 848 25.04 19.1 66.4 70 13.5 56.4
07:50 1018 30.06 848 25.04 19.3 66.8 69 13.6 56.5
07:55 1018 30.06 848 25.04 19.3 66.7 71 14 57.1
08:00 1018 30.06 848 25.04 19.1 66.4 73 14.1 57.4
08:05 1018 30.06 848 25.04 19.1 66.4 72 14 57.2
08:10 1019 30.09 848 25.04 19.4 66.8 69 13.6 56.4
08:15 1019 30.09 848 25.04 19.6 67.2 69 13.9 57
08:20 1019 30.09 848 25.04 19.8 67.6 67 13.5 56.3
08:25 1019 30.09 848 25.04 20.2 68.3 66 13.8 56.8
08:30 1019 30.09 848 25.04 20.2 68.3 66 13.6 56.5
08:35 1019 30.09 848 25.04 20 68 66 13.5 56.3
08:40 1019 30.09 848 25.04 19.9 67.9 69 14.2 57.6
08:45 1019 30.09 848 25.04 20.1 68.2 66 13.7 56.7
08:50 1019 30.09 848 25.04 20.2 68.3 67 13.9 56.9
08:55 1019 30.09 848 25.04 20.2 68.4 67 14.1 57.4
09:00 1019 30.09 848 25.04 20.4 68.7 66 13.8 56.9
09:05 1019 30.09 848 25.04 20.7 69.3 63 13.4 56.2
09:10 1019 30.09 848 25.04 21.8 71.2 58 13.3 55.9
09:15 1019 30.09 848 25.04 22.2 72 58 13.6 56.5
09:20 1019 30.09 848 25.04 22.5 72.5 56 13.5 56.2
09:25 1019 30.09 848 25.04 23.1 73.6 52 12.9 55.2
09:30 1019 30.09 848 25.04 23.5 74.3 52 13.2 55.7
09:35 1019 30.09 848 25.04 23.8 74.9 50 13 55.3
09:40 1019 30.09 848 25.04 24.4 76 50 13.5 56.4
09:45 1019 30.09 848 25.04 25.1 77.2 47 13.1 55.6
09:50 1019 30.09 848 25.04 25.7 78.2 45 13.2 55.7
09:55 1019 30.09 848 25.04 25.9 78.5 42 12.2 54
10:00 1019 30.09 848 25.04 25.5 77.8 46 13.2 55.8
10:05 1019 30.09 848 25.04 25.9 78.6 41 12 53.7
10:10 1019 30.09 848 25.04 26.3 79.3 41 12.3 54.1
10:15 1019 30.09 848 25.04 26.4 79.5 41 12.3 54.1
10:20 1019 30.09 848 25.04 25.9 78.5 44 13 55.4
10:25 1019 30.09 848 25.04 25.5 78 44 12.6 54.7
10:30 1019 30.09 848 25.04 26.3 79.4 41 12.4 54.4
10:35 1019 30.09 848 25.04 26.9 80.5 40 12.3 54.2
10:40 1019 30.09 848 25.04 27.2 81 41 12.9 55.2
10:45 1019 30.09 848 25.04 27.4 81.3 40 12.9 55.2
10:50 1019 30.09 848 25.04 27.6 81.7 41 13.5 56.3
10:55 1019 30.09 848 25.04 27.5 81.4 42 13.7 56.7
11:00 1019 30.09 848 25.04 27.5 81.5 42 13.7 56.6
11:05 1019 30.09 848 25.04 27.1 80.7 44 14 57.2
11:10 1019 30.09 848 25.04 26.4 79.6 45 13.9 57
11:15 1019 30.09 848 25.04 26.2 79.1 48 14.5 58
11:20 1019 30.09 848 25.04 26 78.9 48 14.3 57.8
11:25 1019 30.09 848 25.04 25.7 78.2 49 14.5 58.1
11:30 1019 30.09 848 25.04 25 77 51 14.5 58.1
11:35 1019 30.09 848 25.04 25.3 77.6 50 14.2 57.6
11:40 1019 30.09 848 25.04 26.1 79 49 14.6 58.4
11:45 1019 30.09 848 25.04 26.1 78.9 48 14.3 57.7
11:50 1019 30.09 848 25.04 25.9 78.6 48 14.4 57.9
11:55 1019 30.09 848 25.04 26 78.8 47 14 57.2
12:00 1019 30.09 848 25.04 26.6 79.9 44 13.5 56.3
12:05 1019 30.09 848 25.04 27.4 81.4 41 13.1 55.7
12:10 1019 30.09 848 25.04 27.6 81.7 43 14.1 57.4
12:15 1019 30.09 848 25.04 27.7 81.8 44 14.4 57.9
12:20 1018 30.06 848 25.04 27.8 82 42 13.9 57.1
12:25 1018 30.06 848 25.04 27.8 82 45 15 59
12:30 1018 30.06 848 25.04 27.2 81 44 14.2 57.6
12:35 1018 30.06 848 25.04 26.6 79.9 45 13.8 56.8
12:40 1018 30.06 848 25.04 26.7 80 45 13.8 56.9
12:45 1018 30.06 848 25.04 26.7 80 46 14.2 57.6
12:50 1018 30.06 847 25.01 27 80.6 44 13.9 57.1
12:55 1018 30.06 847 25.01 26.6 79.8 47 14.4 57.9
13:00 1018 30.06 847 25.01 26.6 79.8 45 14 57.2
13:05 1018 30.06 847 25.01 26.4 79.5 46 14.2 57.5
13:10 1018 30.06 847 25.01 26.6 79.9 44 13.7 56.6
13:15 1018 30.06 847 25.01 26.9 80.5 45 14.1 57.4
13:20 1018 30.06 847 25.01 27.1 80.7 44 14.1 57.3
13:25 1018 30.06 847 25.01 27 80.6 44 13.8 56.9
13:30 1018 30.06 847 25.01 26.7 80 46 14.3 57.7
13:35 1018 30.06 847 25.01 26.6 79.8 47 14.4 57.9
13:40 1018 30.06 847 25.01 26.6 79.9 44 13.6 56.5
13:45 1018 30.06 847 25.01 26.5 79.6 45 13.8 56.8
13:50 1018 30.06 847 25.01 26.4 79.6 46 14.2 57.5
13:55 1018 30.06 847 25.01 26.3 79.3 47 14.3 57.7
14:00 1018 30.06 847 25.01 26.3 79.4 47 14.4 57.9
14:05 1018 30.06 847 25.01 26.4 79.5 48 14.7 58.4
14:10 1018 30.06 847 25.01 26.7 80 45 13.9 57
14:15 1018 30.06 847 25.01 26.7 80.1 45 13.9 57.1
14:20 1018 30.06 847 25.01 26.9 80.3 45 14.3 57.7
14:25 1018 30.06 847 25.01 27.2 81 47 15 59.1
14:30 1018 30.06 847 25.01 27.3 81.2 45 14.6 58.3
14:35 1018 30.06 847 25.01 27.9 82.2 38 12.4 54.2
14:40 1018 30.06 847 25.01 28.5 83.3 35 11.9 53.4
14:45 1018 30.06 847 25.01 28.7 83.7 35 12.1 53.7
14:50 1018 30.06 847 25.01 29.9 85.7 33 12.2 54
14:55 1018 30.06 847 25.01 30.7 87.3 31 11.9 53.5
15:00 1017 30.03 847 25.01 30.7 87.2 29 10.7 51.2
15:05 1017 30.03 847 25.01 31.1 87.9 27 10.3 50.5
15:10 1017 30.03 846 24.98 31.5 88.7 25 9.4 49
15:15 1017 30.03 846 24.98 31.8 89.2 24 8.8 47.9
15:20 1017 30.03 846 24.98 31.3 88.4 24 8.5 47.4
15:25 1017 30.03 846 24.98 31.1 88 22 7.3 45.2
15:30 1017 30.03 846 24.98 30.7 87.3 22 6.9 44.5
15:35 1017 30.03 846 24.98 30.8 87.4 23 7.6 45.6
15:40 1017 30.03 846 24.98 30.9 87.7 23 7.5 45.4
15:45 1017 30.03 846 24.98 30.4 86.7 23 7 44.6
15:50 1017 30.03 846 24.98 30.4 86.7 22 6.4 43.4
15:55 1017 30.03 846 24.98 30.1 86.1 23 6.9 44.4
16:00 1017 30.03 846 24.98 29.9 85.8 21 5.7 42.3
16:05 1017 30.03 846 24.98 29.7 85.5 21 5.4 41.8
16:10 1017 30.03 846 24.98 30 86 22 6 42.8
16:15 1017 30.03 846 24.98 30 86 21 5.9 42.7
16:20 1017 30.03 846 24.98 29.7 85.5 22 6.1 42.9
16:25 1017 30.03 846 24.98 29.6 85.3 23 6.3 43.4
16:30 1017 30.03 846 24.98 29.6 85.3 21 5.3 41.5
16:35 1017 30.03 846 24.98 29.5 85.1 22 5.7 42.2
16:40 1017 30.03 846 24.98 29.2 84.5 21 4.7 40.5
16:45 1017 30.03 846 24.98 29.2 84.5 21 5.2 41.4
16:50 1017 30.03 846 24.98 29.9 85.8 22 6.3 43.3
16:55 1017 30.03 846 24.98 30 85.9 21 5.9 42.6
17:00 1017 30.03 846 24.98 30.1 86.2 23 6.9 44.4
17:05 1017 30.03 846 24.98 30 85.9 21 5.7 42.3
17:10 1017 30.03 846 24.98 30.4 86.7 21 6.1 42.9
17:15 1017 30.03 846 24.98 30.7 87.3 21 6.4 43.6
17:20 1017 30.03 846 24.98 30.6 87.1 21 6.3 43.3
17:25 1017 30.03 846 24.98 30.3 86.6 22 6.3 43.3
17:30 1016 30 846 24.98 30.4 86.8 21 6.3 43.4
17:35 1016 30 846 24.98 30.1 86.1 22 6.5 43.7
17:40 1016 30 846 24.98 29.6 85.3 23 6.5 43.8
17:45 1016 30 846 24.98 29.5 85.1 23 6.2 43.2
17:50 1016 30 846 24.98 29.9 85.9 22 6 42.8
17:55 1016 30 846 24.98 29.8 85.6 23 6.6 43.9
18:00 1016 30 846 24.98 30 86 21 5.9 42.7
18:05 1016 30 846 24.98 29.9 85.8 23 6.6 43.9
18:10 1016 30 846 24.98 30 85.9 23 7 44.6
18:15 1016 30 845 24.95 29.5 85.1 23 6.3 43.3
18:20 1016 30 845 24.95 29.8 85.6 23 7.1 44.7
18:25 1016 30 845 24.95 29.8 85.6 23 6.5 43.8
18:30 1016 30 845 24.95 29.6 85.2 23 6.9 44.4
18:35 1016 30 845 24.95 29.4 84.9 24 7.3 45.2
18:40 1016 30 845 24.95 29.4 84.8 23 6.7 44
18:45 1016 30 845 24.95 29.4 84.9 24 6.8 44.3
18:50 1016 30 845 24.95 29.5 85 25 7.6 45.6
18:55 1016 30 845 24.95 29.4 85 24 6.9 44.4
19:00 1016 30 845 24.95 29.4 84.9 25 7.5 45.4
19:05 1016 30 845 24.95 29.3 84.7 26 7.8 46.1
19:10 1016 30 845 24.95 29.1 84.4 27 8.4 47.1
19:15 1016 30 845 24.95 29.1 84.3 27 8.5 47.4
19:20 1016 30 845 24.95 28.9 84.1 28 9.1 48.4
19:25 1016 30 845 24.95 28.7 83.6 26 7.8 46
19:30 1016 30 845 24.95 28.7 83.6 26 7.3 45.2
19:35 1016 30 845 24.95 28.7 83.6 26 7.6 45.6
19:40 1015 29.97 845 24.95 28.6 83.5 26 7.7 45.9
19:45 1015 29.97 845 24.95 28.6 83.5 26 7.6 45.7
19:50 1015 29.97 845 24.95 28.6 83.5 27 7.9 46.2
19:55 1015 29.97 845 24.95 28.5 83.3 27 7.9 46.1
20:00 1015 29.97 845 24.95 28.5 83.2 27 8.2 46.8
20:05 1015 29.97 845 24.95 28.5 83.2 28 8.4 47.2
20:10 1015 29.97 845 24.95 28.4 83 30 9.5 49.1
20:15 1015 29.97 845 24.95 28 82.5 32 10.2 50.4
20:20 1015 29.97 845 24.95 27.9 82.2 33 10.3 50.5
20:25 1015 29.97 845 24.95 27.8 82 29 8.3 47
20:30 1015 29.97 845 24.95 27.8 82.1 33 10.4 50.7
20:35 1016 30 845 24.95 27.7 81.9 32 9.7 49.4
20:40 1016 30 845 24.95 26.8 80.2 38 11.6 52.8
20:45 1016 30 845 24.95 25.7 78.3 39 11 51.7
20:50 1016 30 845 24.95 25.3 77.5 40 10.8 51.4
20:55 1016 30 845 24.95 24.7 76.5 39 10.1 50.2
21:00 1016 30 845 24.95 24.4 75.9 39 9.9 49.9
21:05 1016 30 845 24.95 24.3 75.8 39 9.8 49.6
21:10 1016 30 845 24.95 24.2 75.5 38 9.4 48.9
21:15 1016 30 845 24.95 24.1 75.3 38 9.2 48.6
21:20 1016 30 845 24.95 23.9 75 39 9.4 48.9
21:25 1016 30 845 24.95 23.6 74.6 40 9.3 48.8
21:30 1016 30 845 24.95 23.4 74.2 41 9.6 49.2
21:35 1016 30 845 24.95 23.1 73.6 42 9.8 49.6
21:40 1016 30 845 24.95 22.8 73 43 9.8 49.6
21:45 1016 30 845 24.95 22.7 72.9 43 9.7 49.5
21:50 1016 30 845 24.95 22.6 72.7 44 9.8 49.6
21:55 1016 30 845 24.95 22.6 72.6 43 9.5 49.2
22:00 1016 30 845 24.95 22.6 72.7 43 9.6 49.2
22:05 1016 30 845 24.95 22.6 72.6 43 9.7 49.4
22:10 1016 30 845 24.95 22.7 72.8 43 9.8 49.6
22:15 1016 30 845 24.95 22.6 72.7 43 9.6 49.2
22:20 1016 30 845 24.95 22.6 72.8 43 9.6 49.3
22:25 1016 30 845 24.95 22.6 72.7 43 9.5 49.1
22:30 1016 30 846 24.98 22.5 72.4 44 9.9 49.7
22:35 1017 30.03 846 24.98 22.1 71.8 46 10 50
22:40 1017 30.03 846 24.98 21.8 71.3 44 9.1 48.3
22:45 1017 30.03 846 24.98 21.9 71.3 42 8.5 47.4
22:50 1017 30.03 846 24.98 22.1 71.8 41 8.4 47.1
22:55 1017 30.03 846 24.98 22.4 72.3 40 8.3 47
23:00 1017 30.03 847 25.01 22.3 72.1 40 8.3 46.9
23:05 1017 30.03 847 25.01 22.6 72.8 39 8.2 46.7
23:10 1017 30.03 846 24.98 22.9 73.2 38 8.1 46.6
23:15 1017 30.03 847 25.01 22.8 73.1 38 8.1 46.5
23:20 1018 30.06 847 25.01 22.8 73.1 37 7.7 45.9
23:25 1018 30.06 847 25.01 23.2 73.7 38 8.2 46.8
23:30 1018 30.06 847 25.01 22.9 73.3 41 9.2 48.6
23:35 1018 30.06 847 25.01 22.6 72.7 42 9.2 48.5
23:40 1018 30.06 847 25.01 22.4 72.3 43 9.3 48.7
23:45 1018 30.06 847 25.01 22.2 72 45 9.9 49.8
23:50 1018 30.06 847 25.01 21.4 70.5 54 11.9 53.4
23:55 1018 30.06 847 25.01 20.2 68.3 58 11.8 53.2
24:00 1018 30.06 847 25.01 20 68.1 55 10.8 51.5